Time;durP1;ratioP1;P1;durP2;ratioP2;P2;SDS_P1;SDS_P2;PMS_P1;PMS_P2;Temp;Humidity;BMP_temperature;BMP_pressure;BME280_temperature;BME280_humidity;BME280_pressure;Samples;Min_cycle;Max_cycle;Signal;HPM_P1;HPM_P2
2021/12/12 00:01:34;;;;;;;55.92;21.82;;;;;;;-3.00;85.19;101560.66;1687487;84;20927;-75
2021/12/12 00:04:14;;;;;;;63.20;22.52;;;;;;;-2.99;85.20;101559.87;1686909;84;21105;-75
2021/12/12 00:06:52;;;;;;;60.03;21.68;;;;;;;-2.98;85.25;101551.48;1669415;84;21072;-75
2021/12/12 00:09:26;;;;;;;60.48;21.15;;;;;;;-2.98;85.15;101570.86;1676466;84;21084;-75
2021/12/12 00:11:54;;;;;;;56.13;20.90;;;;;;;-2.97;85.16;101565.88;1689255;84;21069;-75
2021/12/12 00:14:35;;;;;;;58.02;21.27;;;;;;;-2.97;85.19;101562.48;1689796;84;20962;-75
2021/12/12 00:17:04;;;;;;;52.53;21.00;;;;;;;-2.96;85.20;101580.67;1686883;84;21020;-74
2021/12/12 00:19:31;;;;;;;57.48;21.45;;;;;;;-2.95;85.23;101571.89;1681600;84;20934;-74
2021/12/12 00:21:59;;;;;;;;;;;;;;;-3.10;85.12;101552.09;1685900;84;22477;-74
2021/12/12 00:24:27;;;;;;;49.25;18.60;;;;;;;-2.98;85.20;101575.52;1684629;84;20136;-74
2021/12/12 00:26:57;;;;;;;51.20;19.48;;;;;;;-2.95;85.26;101582.02;1688063;84;21072;-74
2021/12/12 00:29:26;;;;;;;53.28;17.52;;;;;;;-2.95;85.18;101584.55;1689253;84;21081;-74
2021/12/12 00:31:57;;;;;;;47.13;19.00;;;;;;;-2.95;85.23;101587.08;1679214;84;21467;-74
2021/12/12 00:34:26;;;;;;;54.13;19.65;;;;;;;-2.96;85.20;101589.13;1664747;84;21483;-74
2021/12/12 00:36:52;;;;;;;51.25;18.37;;;;;;;-2.98;85.14;101589.84;1676172;84;20953;-74
2021/12/12 00:39:24;;;;;;;49.67;18.60;;;;;;;-3.00;85.18;101586.83;1683517;84;21733;-75
2021/12/12 00:41:56;;;;;;;46.25;19.30;;;;;;;-3.02;85.16;101592.20;1687817;84;20970;-75
2021/12/12 00:44:24;;;;;;;52.15;20.25;;;;;;;-3.04;85.17;101587.45;1690677;84;21442;-74
2021/12/12 00:46:51;;;;;;;51.30;18.92;;;;;;;-3.05;85.20;101592.03;1678607;84;21779;-74
2021/12/12 00:49:19;;;;;;;47.83;19.30;;;;;;;-3.02;85.21;101595.99;1684013;84;20974;-74
2021/12/12 00:51:46;;;;;;;51.70;19.65;;;;;;;-3.02;85.21;101595.99;1681137;84;20974;-74
2021/12/12 00:54:16;;;;;;;38.70;16.48;;;;;;;-3.04;85.22;101591.24;1692432;82;21406;-74
2021/12/12 00:56:43;;;;;;;46.83;19.23;;;;;;;-3.05;85.22;101589.50;1714465;82;21403;-74
2021/12/12 00:59:12;;;;;;;49.42;18.70;;;;;;;-3.03;85.25;101599.70;1698153;82;21360;-74
2021/12/12 01:01:45;;;;;;;53.55;20.32;;;;;;;-3.03;85.46;101609.43;1693572;82;20949;-74
2021/12/12 01:04:19;;;;;;;46.58;18.70;;;;;;;-3.04;85.28;101604.28;1714629;81;20922;-74
2021/12/12 01:06:49;;;;;;;50.58;17.57;;;;;;;-3.02;85.28;101602.31;1732221;81;21415;-75
2021/12/12 01:09:21;;;;;;;49.88;19.15;;;;;;;-3.03;85.31;101597.17;1693779;82;20902;-75
2021/12/12 01:11:52;;;;;;;46.73;17.52;;;;;;;-3.03;85.31;101598.05;1710966;82;20953;-75
2021/12/12 01:14:24;;;;;;;48.70;18.48;;;;;;;-3.00;85.35;101596.08;1698479;82;21310;-75
2021/12/12 01:17:05;;;;;;;52.48;19.05;;;;;;;-2.98;85.32;101591.09;1701741;82;21774;-75
2021/12/12 01:19:39;;;;;;;54.20;19.77;;;;;;;-2.96;85.35;101588.26;1694816;82;20925;-75
2021/12/12 01:22:22;;;;;;;61.10;22.10;;;;;;;-2.95;85.34;101577.35;1704070;82;21443;-75
2021/12/12 01:24:50;;;;;;;57.27;20.85;;;;;;;-2.93;85.41;101586.77;1692864;81;21040;-75
2021/12/12 01:27:18;;;;;;;57.85;20.43;;;;;;;-2.91;85.37;101580.52;1721080;82;21097;-74
2021/12/12 01:29:45;;;;;;;57.83;20.52;;;;;;;-2.89;85.39;101571.35;1704503;82;20925;-74
2021/12/12 01:32:22;;;;;;;50.03;20.65;;;;;;;-2.88;85.37;101569.30;1717255;82;20934;-74
2021/12/12 01:34:44;;;;;;;54.13;21.20;;;;;;;-2.88;85.34;101565.50;1685879;83;21064;-75
2021/12/12 01:40:08;;;;;;;49.88;19.37;;;;;;;-2.88;85.36;101551.59;1693765;82;21499;-75
2021/12/12 01:42:43;;;;;;;55.60;20.05;;;;;;;-2.86;85.33;101547.48;1697378;82;20879;-75
2021/12/12 01:45:24;;;;;;;58.55;21.07;;;;;;;-2.86;85.33;101547.48;1700023;82;21069;-75
2021/12/12 01:48:01;;;;;;;56.83;21.95;;;;;;;-2.83;85.44;101562.43;1692659;82;21382;-74
2021/12/12 01:50:56;;;;;;;58.83;21.00;;;;;;;-2.79;85.46;101568.52;1699084;82;20950;-74
2021/12/12 01:53:27;;;;;;;59.93;22.20;;;;;;;-2.79;85.43;101569.79;1691619;82;20974;-74
2021/12/12 01:56:13;;;;;;;63.38;22.82;;;;;;;-2.78;85.43;101574.93;1693046;82;20866;-75
2021/12/12 01:58:42;;;;;;;62.40;23.67;;;;;;;-2.76;85.44;101576.28;1694361;82;20938;-74
2021/12/12 02:01:14;;;;;;;62.25;23.15;;;;;;;-2.75;85.44;101584.34;1714689;82;21005;-74
2021/12/12 02:03:46;;;;;;;60.80;22.60;;;;;;;-2.73;85.45;101586.17;1703133;82;21112;-74
2021/12/12 02:06:17;;;;;;;70.17;25.10;;;;;;;-2.73;85.40;101583.64;1681671;82;20974;-74
2021/12/12 02:08:45;;;;;;;57.67;22.50;;;;;;;-2.68;85.47;101599.94;1699649;84;21360;-74
2021/12/12 02:11:16;;;;;;;61.53;24.85;;;;;;;-2.67;85.44;101601.69;1701247;84;20945;-74
2021/12/12 02:13:48;;;;;;;60.28;23.73;;;;;;;-2.66;85.41;101600.02;1701014;84;20937;-74
2021/12/12 02:16:16;;;;;;;71.90;26.25;;;;;;;-2.65;85.44;101597.97;1739023;81;20919;-75
2021/12/12 02:18:48;;;;;;;71.97;24.98;;;;;;;-2.63;85.44;101594.25;1702032;81;21545;-75
2021/12/12 02:21:25;;;;;;;60.65;25.62;;;;;;;-2.63;85.43;101596.78;1700331;82;20957;-74
2021/12/12 02:35:23;;;;;;;85.32;27.85;;;;;;;-2.65;85.50;101610.63;1697071;82;20925;-74
2021/12/12 02:37:49;;;;;;;78.15;28.25;;;;;;;-2.62;85.52;101613.72;1692965;82;20949;-74
2021/12/12 02:40:23;;;;;;;71.90;26.33;;;;;;;-2.62;85.49;101620.91;1706510;82;20930;-74
2021/12/12 02:42:53;;;;;;;81.57;28.40;;;;;;;-2.61;85.52;101613.80;1702218;82;20918;-74
2021/12/12 02:45:22;;;;;;;75.20;26.50;;;;;;;-2.58;85.52;101611.79;1726251;82;20956;-74
2021/12/12 02:48:00;;;;;;;71.47;26.62;;;;;;;-2.56;85.51;101616.14;1724635;82;20945;-74
2021/12/12 02:50:30;;;;;;;74.03;26.93;;;;;;;-2.55;85.50;101619.16;1707575;81;20977;-74
2021/12/12 02:53:14;;;;;;;68.80;26.75;;;;;;;-2.55;85.50;101616.63;1699171;82;20911;-74
2021/12/12 02:55:45;;;;;;;66.72;26.05;;;;;;;-2.53;85.46;101609.98;1707860;82;21509;-74
2021/12/12 02:58:16;;;;;;;67.72;26.20;;;;;;;-2.53;85.46;101613.77;1693593;82;20958;-74
2021/12/12 03:00:51;;;;;;;69.85;26.57;;;;;;;-2.54;85.41;101611.16;1710100;82;21530;-74
2021/12/12 03:03:17;;;;;;;70.52;28.10;;;;;;;-2.54;85.42;101607.36;1700914;82;20948;-74
2021/12/12 03:05:46;;;;;;;64.58;26.97;;;;;;;-2.56;85.41;101606.41;1699043;82;20915;-74
2021/12/12 03:08:14;;;;;;;71.37;29.72;;;;;;;-2.55;85.43;101608.16;1704530;82;20961;-74
2021/12/12 03:10:45;;;;;;;70.45;27.58;;;;;;;-2.56;85.43;101601.34;1721543;82;21341;-74
2021/12/12 03:13:12;;;;;;;71.50;28.75;;;;;;;-2.57;85.44;101614.40;1695482;82;20886;-74
2021/12/12 03:15:41;;;;;;;70.67;28.10;;;;;;;-2.56;85.49;101613.61;1693561;82;20906;-74
2021/12/12 03:18:12;;;;;;;71.02;28.45;;;;;;;-2.53;85.48;101608.71;1708186;82;20935;-74
2021/12/12 03:20:48;;;;;;;77.17;29.67;;;;;;;-2.53;85.47;101611.24;1707003;82;20962;-74
2021/12/12 03:23:34;;;;;;;63.70;26.57;;;;;;;-2.51;85.45;101609.66;1693913;82;20901;-74
2021/12/12 03:26:03;;;;;;;;;;;;;;;-2.52;85.43;101607.92;1707287;82;21502;-74
2021/12/12 03:28:35;;;;;;;68.07;24.50;;;;;;;-2.51;85.46;101608.79;1727866;82;20135;-74
2021/12/12 03:31:07;;;;;;;67.80;27.48;;;;;;;-2.51;85.45;101619.79;1693698;82;20937;-74
2021/12/12 03:33:34;;;;;;;66.02;26.57;;;;;;;-2.50;85.46;101626.59;1696537;82;21418;-74
2021/12/12 03:36:05;;;;;;;68.40;27.20;;;;;;;-2.50;85.45;101616.47;1708421;82;21416;-74
2021/12/12 03:38:34;;;;;;;67.90;26.95;;;;;;;-2.50;85.41;101615.59;1724482;82;21265;-74
2021/12/12 03:41:05;;;;;;;73.02;27.87;;;;;;;-2.53;85.41;101609.98;1698242;82;20898;-74
2021/12/12 03:43:32;;;;;;;73.83;28.80;;;;;;;-2.51;85.44;101617.66;1700169;82;20936;-74
2021/12/12 03:45:59;;;;;;;65.00;28.07;;;;;;;-2.52;85.42;101612.11;1705396;82;20918;-74
2021/12/12 03:48:30;;;;;;;73.65;28.57;;;;;;;-2.52;85.40;101614.64;1696289;82;20956;-74
2021/12/12 03:51:04;;;;;;;73.67;30.40;;;;;;;-2.53;85.43;101623.91;1693163;82;21061;-74
2021/12/12 03:53:34;;;;;;;75.95;30.62;;;;;;;-2.51;85.44;101626.52;1702980;82;20951;-74
2021/12/12 03:56:01;;;;;;;73.45;28.92;;;;;;;-2.51;85.46;101630.31;1713774;82;20870;-74
2021/12/12 03:58:28;;;;;;;72.90;28.85;;;;;;;-2.51;85.46;101629.92;1685235;83;20958;-74
2021/12/12 04:01:14;;;;;;;79.15;30.08;;;;;;;-2.50;85.47;101630.39;1720785;82;20871;-74
2021/12/12 04:03:45;;;;;;;76.77;30.02;;;;;;;-2.51;85.43;101629.05;1702531;82;21063;-74
2021/12/12 04:06:16;;;;;;;68.97;28.57;;;;;;;-2.51;85.49;101626.13;1690550;82;21041;-74
2021/12/12 04:08:46;;;;;;;75.15;28.77;;;;;;;-2.50;85.48;101623.19;1697663;82;20977;-74
2021/12/12 04:11:19;;;;;;;74.30;29.98;;;;;;;-2.51;85.43;101614.73;1702983;82;21298;-74
2021/12/12 04:13:50;;;;;;;79.87;30.85;;;;;;;-2.51;85.46;101610.93;1718833;82;20865;-74
2021/12/12 04:16:18;;;;;;;77.85;29.42;;;;;;;-2.50;85.48;101618.12;1701437;82;21079;-74
2021/12/12 04:18:45;;;;;;;71.00;27.45;;;;;;;-2.50;85.45;101610.53;1718730;82;21044;-74
2021/12/12 04:21:12;;;;;;;70.72;28.20;;;;;;;-2.51;85.44;101620.19;1695158;82;21076;-74
2021/12/12 04:23:40;;;;;;;77.20;29.72;;;;;;;-2.51;85.48;101626.52;1709338;82;20894;-74
2021/12/12 04:26:23;;;;;;;78.20;28.15;;;;;;;-2.50;85.48;101621.92;1697850;82;21107;-74
2021/12/12 04:29:13;;;;;;;74.05;28.00;;;;;;;-2.50;85.50;101624.45;1691392;82;21520;-74
2021/12/12 04:31:45;;;;;;;71.80;28.27;;;;;;;-2.52;85.45;101617.17;1705156;82;20911;-74
2021/12/12 04:34:11;;;;;;;71.70;26.75;;;;;;;-2.52;85.64;101622.24;1697838;82;21248;-74
2021/12/12 04:36:42;;;;;;;65.62;27.55;;;;;;;-2.52;85.52;101630.70;1691877;82;20937;-75
2021/12/12 04:39:25;;;;;;;67.32;27.48;;;;;;;-2.52;85.53;101627.30;1706485;82;20914;-74
2021/12/12 04:42:00;;;;;;;71.12;27.02;;;;;;;-2.51;85.51;101627.39;1702468;82;21486;-74
2021/12/12 04:44:31;;;;;;;75.22;27.35;;;;;;;-2.50;85.50;101624.45;1710969;82;20915;-74
2021/12/12 04:50:20;;;;;;;67.47;26.27;;;;;;;-2.50;85.54;101626.59;1692005;82;20960;-74
2021/12/12 04:53:11;;;;;;;70.75;26.97;;;;;;;-2.50;85.51;101629.13;1715144;82;20899;-74
2021/12/12 04:55:51;;;;;;;72.25;27.52;;;;;;;-2.50;85.52;101633.32;1693706;82;21048;-74
2021/12/12 04:58:38;;;;;;;66.97;28.02;;;;;;;-2.50;85.64;101635.85;1720534;82;21061;-74
2021/12/12 05:01:12;;;;;;;69.77;27.02;;;;;;;-2.50;85.49;101634.59;1694573;82;21067;-74
2021/12/12 05:03:56;;;;;;;65.90;26.07;;;;;;;-2.52;85.43;101638.70;1687528;82;26624;-74
2021/12/12 05:06:40;;;;;;;69.95;26.23;;;;;;;-2.55;85.43;101653.33;1699809;82;21116;-74
2021/12/12 05:09:15;;;;;;;64.55;27.22;;;;;;;-2.55;85.46;101649.53;1703116;82;21044;-74
2021/12/12 05:12:11;;;;;;;66.33;26.35;;;;;;;-2.60;85.61;101667.44;1690493;82;21089;-74
2021/12/12 05:14:45;;;;;;;63.48;26.45;;;;;;;-2.60;85.61;101667.44;1706045;82;21101;-74
2021/12/12 05:17:32;;;;;;;65.22;26.02;;;;;;;-2.63;85.42;101660.08;1706851;82;20889;-74
2021/12/12 05:20:03;;;;;;;61.65;25.97;;;;;;;-2.63;85.48;101662.61;1692280;82;20929;-74
2021/12/12 05:22:35;;;;;;;58.45;25.80;;;;;;;-2.63;85.47;101665.14;1702982;82;20906;-74
2021/12/12 05:25:05;;;;;;;60.28;26.23;;;;;;;-2.64;85.49;101659.59;1712314;82;21452;-74
2021/12/12 05:27:33;;;;;;;65.95;25.92;;;;;;;-2.62;85.52;101663.08;1703866;82;20981;-74
2021/12/12 05:30:05;;;;;;;59.85;26.45;;;;;;;-2.62;85.51;101659.28;1720515;82;20914;-74
2021/12/12 05:32:36;;;;;;;60.12;27.00;;;;;;;-2.62;85.52;101665.22;1707049;82;21009;-74
2021/12/12 05:35:05;;;;;;;63.50;24.82;;;;;;;-2.61;85.49;101664.43;1704231;82;21106;-74
2021/12/12 05:37:32;;;;;;;56.40;25.25;;;;;;;-2.62;85.47;101666.88;1711362;82;21069;-74
2021/12/12 05:40:05;;;;;;;60.15;25.85;;;;;;;-2.61;85.54;101674.95;1737122;81;21496;-74
2021/12/12 05:42:32;;;;;;;65.37;26.17;;;;;;;-2.61;85.52;101670.76;1701514;82;21046;-74
2021/12/12 05:45:01;;;;;;;59.90;26.02;;;;;;;-2.59;85.52;101675.48;1701076;82;20950;-74
2021/12/12 05:47:28;;;;;;;56.77;26.42;;;;;;;-2.58;85.54;101677.22;1702110;82;21016;-74
2021/12/12 05:49:54;;;;;;;62.10;25.82;;;;;;;-2.57;85.54;101681.50;1714386;82;20954;-74
2021/12/12 05:52:22;;;;;;;60.12;26.42;;;;;;;-2.54;85.60;101688.39;1687572;82;21081;-74
2021/12/12 05:54:52;;;;;;;62.05;27.73;;;;;;;-2.53;85.58;101683.41;1725823;82;21062;-74
2021/12/12 05:57:24;;;;;;;70.20;29.70;;;;;;;-2.50;85.57;101683.97;1706170;82;20905;-74
2021/12/12 05:59:53;;;;;;;73.42;29.40;;;;;;;-2.49;85.59;101682.78;1704152;82;21036;-74
2021/12/12 06:02:21;;;;;;;74.72;30.00;;;;;;;-2.47;85.58;101675.27;1682652;82;21085;-74
2021/12/12 06:04:48;;;;;;;67.20;28.57;;;;;;;-2.46;85.54;101678.27;1693809;82;20992;-74
2021/12/12 06:07:19;;;;;;;65.17;27.87;;;;;;;-2.45;85.55;101675.83;1697175;82;21036;-74
2021/12/12 06:09:48;;;;;;;72.25;29.92;;;;;;;-2.43;85.56;101683.11;1717817;82;21106;-74
2021/12/12 06:12:17;;;;;;;72.78;29.18;;;;;;;-2.42;85.57;101672.19;1706859;82;20949;-74
2021/12/12 06:14:46;;;;;;;64.85;27.77;;;;;;;-2.41;85.79;101687.86;1705708;82;20906;-74
2021/12/12 06:17:16;;;;;;;62.30;26.90;;;;;;;-2.39;85.39;101686.67;1694576;82;20905;-74
2021/12/12 06:19:44;;;;;;;72.20;29.02;;;;;;;-2.38;85.58;101690.55;1696474;82;20957;-74
2021/12/12 06:22:11;;;;;;;66.47;27.95;;;;;;;-2.35;85.60;101687.31;1703361;82;20875;-74
2021/12/12 06:24:40;;;;;;;71.22;30.27;;;;;;;-2.34;85.57;101690.33;1701953;82;20905;-74
2021/12/12 06:27:14;;;;;;;70.32;28.47;;;;;;;-2.33;85.55;101687.00;1708829;82;20910;-74
2021/12/12 06:29:42;;;;;;;67.53;28.38;;;;;;;-2.32;85.59;101690.02;1714383;82;21259;-74
2021/12/12 06:32:09;;;;;;;69.82;30.08;;;;;;;-2.29;85.60;101688.03;1699197;82;20904;-74
2021/12/12 06:34:35;;;;;;;71.72;29.98;;;;;;;-2.28;85.61;101685.98;1710420;82;20957;-74
2021/12/12 06:37:04;;;;;;;69.87;28.70;;;;;;;-2.27;85.58;101688.99;1698350;82;20897;-74
2021/12/12 06:39:31;;;;;;;70.03;30.37;;;;;;;-2.26;85.62;101689.47;1697209;82;20906;-74
2021/12/12 06:41:58;;;;;;;64.30;28.32;;;;;;;-2.24;85.60;101689.16;1684759;82;20962;-74
2021/12/12 06:44:25;;;;;;;71.55;28.62;;;;;;;-2.25;85.61;101693.74;1697466;82;20910;-74
2021/12/12 06:46:53;;;;;;;;;;;;;;;-2.24;85.58;101699.28;1720643;82;21844;-74
2021/12/12 06:49:20;;;;;;;65.72;28.32;;;;;;;-2.24;85.62;101700.16;1694099;82;20222;-74
2021/12/12 06:51:55;;;;;;;78.20;33.58;;;;;;;-2.22;85.62;101701.11;1711031;82;20897;-74
2021/12/12 06:54:27;;;;;;;70.17;30.25;;;;;;;-2.21;85.62;101706.66;1691784;82;20901;-74
2021/12/12 06:57:00;;;;;;;73.47;29.80;;;;;;;-2.20;85.62;101706.26;1696721;82;20949;-74
2021/12/12 06:59:30;;;;;;;66.25;29.82;;;;;;;-2.18;85.65;101712.28;1711424;82;20957;-74
2021/12/12 07:01:58;;;;;;;70.97;29.77;;;;;;;-2.17;85.65;101718.69;1721959;82;21006;-74
2021/12/12 07:04:29;;;;;;;65.47;27.60;;;;;;;-2.16;85.66;101717.03;1702627;82;21379;-74
2021/12/12 07:06:59;;;;;;;64.65;26.87;;;;;;;-2.16;85.61;101717.03;1718519;81;21428;-74
2021/12/12 07:09:30;;;;;;;66.85;29.05;;;;;;;-2.16;85.63;101721.70;1697165;82;20936;-74
2021/12/12 07:12:01;;;;;;;65.15;28.17;;;;;;;-2.14;85.64;101723.05;1709956;82;21060;-74
2021/12/12 07:14:28;;;;;;;67.75;28.70;;;;;;;-2.13;85.66;101724.40;1706446;82;20973;-74
2021/12/12 07:16:57;;;;;;;71.37;29.57;;;;;;;-2.13;85.61;101713.39;1720807;82;21014;-74
2021/12/12 07:19:23;;;;;;;66.82;27.73;;;;;;;-2.13;85.77;101713.00;1708558;81;21511;-74
2021/12/12 07:21:51;;;;;;;73.33;30.27;;;;;;;-2.11;85.65;101713.08;1696156;82;21064;-74
2021/12/12 07:24:20;;;;;;;68.25;27.77;;;;;;;-2.10;85.68;101722.42;1696711;82;21051;-74
2021/12/12 07:26:47;;;;;;;65.40;28.30;;;;;;;-2.09;85.69;101728.84;1719043;82;21528;-74
2021/12/12 07:29:14;;;;;;;59.83;26.93;;;;;;;-2.07;85.68;101727.62;1707358;82;21004;-75
2021/12/12 07:31:42;;;;;;;65.20;28.45;;;;;;;-2.06;85.68;101728.97;1707803;82;21049;-74
2021/12/12 07:34:18;;;;;;;66.15;28.07;;;;;;;-2.04;85.69;101725.25;1714736;82;21093;-74
2021/12/12 07:36:50;;;;;;;69.70;29.45;;;;;;;-2.02;85.72;101733.80;1693638;82;20984;-74
2021/12/12 07:39:22;;;;;;;73.78;29.75;;;;;;;-1.99;85.74;101728.89;1694314;82;21109;-76
2021/12/12 07:41:52;;;;;;;70.37;30.23;;;;;;;-1.97;85.73;101732.78;1702913;82;21018;-77
2021/12/12 07:44:24;;;;;;;73.22;29.23;;;;;;;-1.96;85.76;101735.78;1700875;82;21580;-74
2021/12/12 07:46:54;;;;;;;77.65;30.80;;;;;;;-1.93;85.75;101735.95;1682019;83;21553;-74
2021/12/12 07:49:24;;;;;;;71.25;29.48;;;;;;;-1.91;85.77;101740.70;1703299;82;20986;-74
2021/12/12 07:51:55;;;;;;;75.12;31.37;;;;;;;-1.88;85.79;101753.53;1695329;82;20968;-74
2021/12/12 07:54:23;;;;;;;72.85;30.57;;;;;;;-1.86;85.79;101754.48;1710231;82;22283;-74
2021/12/12 07:56:50;;;;;;;76.02;31.60;;;;;;;-1.85;85.76;101758.77;1701895;82;20898;-74
2021/12/12 07:59:18;;;;;;;86.05;33.40;;;;;;;-1.84;85.77;101762.64;1694267;82;21435;-74
2021/12/12 08:01:48;;;;;;;83.85;34.83;;;;;;;-1.82;85.78;101767.41;1704376;82;21526;-74
2021/12/12 08:04:17;;;;;;;83.45;33.42;;;;;;;-1.81;85.77;101764.47;1710712;82;21537;-74
2021/12/12 08:06:43;;;;;;;87.92;33.58;;;;;;;-1.79;85.79;101770.49;1710466;82;21497;-74
2021/12/12 08:09:10;;;;;;;;;;;;;;;-1.77;85.78;101768.91;1709515;82;21362;-74
2021/12/12 08:11:39;;;;;;;78.95;31.45;;;;;;;-1.76;85.82;101772.80;1636730;85;20100;-74
2021/12/12 08:14:10;;;;;;;83.42;33.60;;;;;;;-1.72;85.86;101773.43;1696461;82;21403;-74
2021/12/12 08:16:38;;;;;;;81.80;32.95;;;;;;;-1.68;85.89;101774.06;1696215;82;21541;-74
2021/12/12 08:19:04;;;;;;;86.57;33.78;;;;;;;-1.63;85.87;101769.63;1708228;82;21376;-74
2021/12/12 08:21:33;;;;;;;;;;;;;;;-1.58;85.90;101773.27;1698787;82;20905;-74
2021/12/12 08:24:02;;;;;;;88.33;33.95;;;;;;;-1.55;85.91;101770.86;1696309;82;20421;-75
2021/12/12 08:26:29;;;;;;;89.58;34.48;;;;;;;-1.51;85.89;101775.30;1683654;84;21018;-75
2021/12/12 08:28:55;;;;;;;87.80;35.33;;;;;;;-1.48;85.91;101781.80;1720151;82;21391;-74
2021/12/12 08:31:22;;;;;;;79.47;33.73;;;;;;;-1.46;85.92;101778.55;1696333;82;21406;-75
2021/12/12 08:33:48;;;;;;;91.02;35.70;;;;;;;-1.44;85.90;101783.70;1716784;81;20941;-74
2021/12/12 08:36:16;;;;;;;97.08;37.67;;;;;;;-1.41;85.90;101783.86;1704492;82;21585;-75
2021/12/12 08:38:42;;;;;;;78.50;34.10;;;;;;;-1.40;85.90;101783.94;1722310;82;21557;-75
2021/12/12 08:41:10;;;;;;;91.45;33.33;;;;;;;-1.36;85.90;101783.70;1697941;81;21037;-75
2021/12/12 08:43:39;;;;;;;94.80;36.10;;;;;;;-1.34;85.91;101785.52;1694810;82;21102;-74
2021/12/12 08:46:10;;;;;;;86.15;32.73;;;;;;;-1.32;85.91;101781.79;1706444;82;20997;-74
2021/12/12 08:48:47;;;;;;;88.25;33.28;;;;;;;-1.31;85.89;101784.80;1696366;82;21056;-74
2021/12/12 08:51:29;;;;;;;94.55;34.95;;;;;;;-1.28;85.91;101787.89;1694555;82;20985;-74
2021/12/12 08:53:55;;;;;;;88.33;34.67;;;;;;;-1.26;85.95;101789.71;1701314;82;21484;-74
2021/12/12 08:56:41;;;;;;;88.40;34.63;;;;;;;-1.23;85.95;101788.59;1701950;82;21599;-74
2021/12/12 08:58:53;;;;;;;98.10;36.65;;;;;;;-1.22;85.95;101790.34;1693315;81;21632;-74
2021/12/12 09:01:20;;;;;;;90.05;35.58;;;;;;;-1.21;85.91;101795.02;1670642;84;21093;-74
2021/12/12 09:04:01;;;;;;;;;;;;;;;-1.21;85.93;101789.55;1681356;84;22083;-74
2021/12/12 09:06:32;;;;;;;86.63;33.83;;;;;;;-1.19;85.99;101789.23;1688601;84;20169;-74
2021/12/12 09:09:19;;;;;;;99.13;36.93;;;;;;;-1.16;86.00;101794.45;1688326;84;20962;-74
2021/12/12 09:12:08;;;;;;;95.75;36.25;;;;;;;-1.13;85.99;101789.93;1672442;84;21081;-74
2021/12/12 09:14:48;;;;;;;94.05;36.03;;;;;;;-1.13;85.95;101786.13;1660435;84;21064;-74
2021/12/12 09:17:23;;;;;;;101.40;35.83;;;;;;;-1.13;85.94;101785.73;1661854;84;21090;-74
2021/12/12 09:20:09;;;;;;;95.42;35.23;;;;;;;-1.12;85.97;101778.98;1660801;84;21580;-74
2021/12/12 09:22:55;;;;;;;100.05;35.33;;;;;;;-1.12;85.98;101770.10;1660577;86;21068;-75
2021/12/12 09:25:35;;;;;;;89.97;33.73;;;;;;;-1.10;86.02;101779.53;1658416;85;20985;-75
2021/12/12 09:28:41;;;;;;;90.13;34.17;;;;;;;-1.06;86.08;101782.70;1645945;86;21078;-74
2021/12/12 09:31:15;;;;;;;87.90;34.30;;;;;;;-1.02;86.06;101786.23;1660659;84;20950;-75
2021/12/12 09:33:56;;;;;;;90.62;34.45;;;;;;;-1.01;86.06;101785.03;1684603;84;21109;-75
2021/12/12 09:36:42;;;;;;;85.45;33.85;;;;;;;-0.99;86.03;101782.57;1662427;85;20907;-75
2021/12/12 09:39:26;;;;;;;89.30;35.08;;;;;;;-0.96;86.05;101776.77;1650341;86;33728;-74
2021/12/12 09:42:16;;;;;;;87.33;33.42;;;;;;;-0.97;86.04;101775.91;1671381;84;21352;-74
2021/12/12 09:45:14;;;;;;;88.47;33.30;;;;;;;-0.94;86.06;101770.11;1690480;84;20902;-74
2021/12/12 09:51:23;;;;;;;84.47;31.82;;;;;;;-0.86;86.08;101768.81;1630239;87;20958;-74
2021/12/12 09:54:17;;;;;;;88.97;32.63;;;;;;;-0.81;86.08;101768.23;1607962;87;20938;-74
2021/12/12 09:56:58;;;;;;;79.72;30.60;;;;;;;-0.74;86.08;101768.14;1631856;85;20971;-74
2021/12/12 09:59:50;;;;;;;86.08;35.40;;;;;;;-0.70;86.11;101759.87;1675443;85;20991;-74
2021/12/12 10:02:46;;;;;;;85.45;33.23;;;;;;;-0.68;86.07;101762.95;1675639;85;20958;-74
2021/12/12 10:05:37;;;;;;;89.45;34.13;;;;;;;-0.68;86.03;101764.23;1670505;85;20956;-75
2021/12/12 10:08:30;;;;;;;84.35;34.70;;;;;;;-0.67;86.05;101758.34;1624368;85;21034;-74
2021/12/12 10:11:04;;;;;;;87.85;36.15;;;;;;;-0.63;86.12;101766.11;1637006;87;20950;-75
2021/12/12 10:14:04;;;;;;;89.80;34.53;;;;;;;-0.61;86.13;101760.70;1630386;87;21128;-74
2021/12/12 10:16:46;;;;;;;84.80;34.03;;;;;;;-0.57;86.14;101763.86;1637625;87;20975;-73
2021/12/12 10:19:32;;;;;;;81.92;34.50;;;;;;;-0.55;86.14;101761.87;1636476;86;21076;-73
2021/12/12 10:22:37;;;;;;;87.42;33.98;;;;;;;-0.51;86.17;101758.64;1644059;84;21065;-74
2021/12/12 10:25:24;;;;;;;81.65;33.53;;;;;;;-0.47;86.12;101753.30;1724870;82;21103;-74
2021/12/12 10:28:17;;;;;;;83.17;33.83;;;;;;;-0.43;86.18;101749.71;1728118;81;21061;-77
2021/12/12 10:30:58;;;;;;;92.27;35.83;;;;;;;-0.36;86.23;101748.33;1718679;81;21030;-74
2021/12/12 10:33:45;;;;;;;81.25;34.75;;;;;;;-0.32;86.16;101749.34;1726654;81;21068;-74
2021/12/12 10:36:16;;;;;;;82.15;33.13;;;;;;;-0.29;86.20;101756.70;1729868;82;21042;-74
2021/12/12 10:39:09;;;;;;;82.08;32.90;;;;;;;-0.24;86.16;101755.25;1728997;82;21545;-74
2021/12/12 10:41:49;;;;;;;87.42;35.92;;;;;;;-0.21;86.21;101755.39;1706042;82;21038;-74
2021/12/12 10:44:36;;;;;;;84.07;32.90;;;;;;;-0.20;86.11;101760.07;1726353;82;20982;-74
2021/12/12 10:47:30;;;;;;;89.77;35.80;;;;;;;-0.18;86.17;101758.47;1725330;81;21029;-74
2021/12/12 10:50:19;;;;;;;82.25;35.28;;;;;;;-0.15;86.17;101758.61;1723796;82;21585;-74
2021/12/12 10:53:07;;;;;;;97.75;35.13;;;;;;;-0.12;86.15;101756.20;1703676;82;21136;-74
2021/12/12 10:56:03;;;;;;;89.72;36.53;;;;;;;-0.13;86.07;101757.02;1727375;82;21505;-74
2021/12/12 10:58:40;;;;;;;92.55;37.83;;;;;;;-0.14;86.13;101755.27;1722914;82;21098;-74
2021/12/12 11:01:32;;;;;;;85.12;35.25;;;;;;;-0.12;86.18;101750.73;1722893;82;21136;-73
2021/12/12 11:04:22;;;;;;;91.55;35.20;;;;;;;-0.09;86.20;101761.44;1721325;82;20986;-73
2021/12/12 11:07:00;;;;;;;87.17;34.70;;;;;;;-0.09;86.18;101754.67;1726122;82;21400;-74
2021/12/12 11:09:53;;;;;;;93.00;36.65;;;;;;;-0.09;86.16;101747.05;1720966;82;20938;-73
2021/12/12 11:12:25;;;;;;;95.00;36.58;;;;;;;-0.09;86.19;101741.97;1725467;82;20935;-73
2021/12/12 11:15:19;;;;;;;96.40;38.58;;;;;;;-0.07;86.19;101750.93;1720900;82;21094;-75
2021/12/12 11:17:50;;;;;;;86.67;33.98;;;;;;;-0.04;86.25;101750.67;1727524;82;21077;-73
2021/12/12 11:20:45;;;;;;;86.25;35.68;;;;;;;0.00;86.28;101747.43;1729098;82;21081;-73
2021/12/12 11:23:37;;;;;;;91.47;36.83;;;;;;;0.05;86.31;101743.83;1727480;82;21084;-73
2021/12/12 11:26:15;;;;;;;88.90;34.88;;;;;;;0.13;86.33;101740.35;1726929;82;21185;-73
2021/12/12 11:28:50;;;;;;;96.10;36.98;;;;;;;0.15;86.32;101738.34;1728589;82;21026;-73
2021/12/12 11:31:24;;;;;;;95.53;37.05;;;;;;;0.19;86.28;101738.95;1725643;82;27175;-74
2021/12/12 11:33:53;;;;;;;92.45;35.95;;;;;;;0.24;86.32;101739.16;1721435;82;21129;-74
2021/12/12 11:36:27;;;;;;;93.03;35.90;;;;;;;0.28;86.32;101735.54;1726970;82;21109;-74
2021/12/12 11:39:17;;;;;;;91.70;36.68;;;;;;;0.33;86.28;101737.02;1678863;83;21102;-73
2021/12/12 11:42:05;;;;;;;103.05;39.23;;;;;;;0.36;86.29;101729.91;1720217;82;21046;-74
2021/12/12 11:44:45;;;;;;;99.55;37.25;;;;;;;0.39;86.25;101732.59;1724096;81;21102;-74
2021/12/12 11:47:55;;;;;;;90.50;35.78;;;;;;;0.38;86.23;101728.30;1719628;82;21061;-73
2021/12/12 11:50:42;;;;;;;91.82;36.95;;;;;;;0.37;86.22;101724.02;1724404;82;21113;-71
2021/12/12 11:53:17;;;;;;;;;;;;;;;0.38;86.21;101715.59;1729380;82;21097;-71
2021/12/12 11:55:57;;;;;;;85.28;34.05;;;;;;;0.36;86.25;101724.42;1722712;82;20443;-71
2021/12/12 11:58:51;;;;;;;87.65;35.75;;;;;;;0.37;86.24;101730.38;1726683;82;21058;-71
2021/12/12 12:01:32;;;;;;;79.40;33.70;;;;;;;0.36;86.24;101729.91;1722264;82;21034;-70
2021/12/12 12:04:08;;;;;;;78.60;32.78;;;;;;;0.35;86.23;101727.77;1721772;82;20884;-72
2021/12/12 12:06:55;;;;;;;75.87;31.05;;;;;;;0.32;86.18;101725.97;1710535;81;21485;-72